createdAt,value
2017-01-24T00:00:55.006Z,987.98
2017-01-24T00:02:03.694Z,987.96
2017-01-24T00:03:12.380Z,988.01
2017-01-24T00:04:21.071Z,987.99
2017-01-24T00:05:29.762Z,988.01
2017-01-24T00:06:38.450Z,987.98
2017-01-24T00:07:47.140Z,987.99
2017-01-24T00:08:55.851Z,987.99
2017-01-24T00:10:04.543Z,988.03
2017-01-24T00:11:13.256Z,988.02
2017-01-24T00:12:21.945Z,988.05
2017-01-24T00:13:30.631Z,988.06
2017-01-24T00:14:39.320Z,988.03
2017-01-24T00:15:48.010Z,987.99
2017-01-24T00:16:56.695Z,987.98
2017-01-24T00:18:05.782Z,987.99
2017-01-24T00:19:14.469Z,988.01
2017-01-24T00:20:23.158Z,988.06
2017-01-24T00:21:31.845Z,988.09
2017-01-24T00:22:40.540Z,988.16
2017-01-24T00:23:49.227Z,988.18
2017-01-24T00:24:57.917Z,988.15
2017-01-24T00:26:06.604Z,988.12
2017-01-24T00:27:15.307Z,988.13
2017-01-24T00:28:23.995Z,988.16
2017-01-24T00:29:32.680Z,988.16
2017-01-24T00:30:41.367Z,988.16
2017-01-24T00:31:50.056Z,988.16
2017-01-24T00:32:58.740Z,988.19
2017-01-24T00:34:07.430Z,988.22
2017-01-24T00:35:16.116Z,988.2
2017-01-24T00:36:24.803Z,988.26
2017-01-24T00:37:33.495Z,988.27
2017-01-24T00:38:42.184Z,988.29
2017-01-24T00:39:50.871Z,988.29
2017-01-24T00:40:59.555Z,988.27
2017-01-24T00:42:08.247Z,988.3
2017-01-24T00:43:16.939Z,988.27
2017-01-24T00:44:25.625Z,988.29
2017-01-24T00:45:34.314Z,988.24
2017-01-24T00:46:43.008Z,988.23
2017-01-24T00:47:51.698Z,988.26
2017-01-24T00:49:00.390Z,988.24
2017-01-24T00:50:09.106Z,988.18
2017-01-24T00:51:17.796Z,988.15
2017-01-24T00:52:26.483Z,988.17
2017-01-24T00:53:35.174Z,988.21
2017-01-24T00:54:43.863Z,988.22
2017-01-24T00:55:52.582Z,988.23
2017-01-24T00:57:01.269Z,988.24
2017-01-24T00:58:09.962Z,988.26
2017-01-24T00:59:18.651Z,988.25
2017-01-24T01:00:27.352Z,988.21
2017-01-24T01:01:36.043Z,988.24
2017-01-24T01:02:44.737Z,988.21
2017-01-24T01:03:53.427Z,988.29
2017-01-24T01:05:02.120Z,988.3
2017-01-24T01:06:10.810Z,988.32
2017-01-24T01:07:19.505Z,988.35
2017-01-24T01:08:28.192Z,988.39
2017-01-24T01:09:36.881Z,988.41
2017-01-24T01:10:45.579Z,988.41
2017-01-24T01:11:54.272Z,988.39
2017-01-24T01:13:02.963Z,988.36
2017-01-24T01:14:11.656Z,988.38
2017-01-24T01:15:20.348Z,988.38
2017-01-24T01:16:29.033Z,988.32
2017-01-24T01:17:37.724Z,988.35
2017-01-24T01:18:46.413Z,988.39
2017-01-24T01:19:55.102Z,988.38
2017-01-24T01:21:03.792Z,988.45
2017-01-24T01:22:12.478Z,988.48
2017-01-24T01:23:21.169Z,988.48
2017-01-24T01:24:29.855Z,988.43
2017-01-24T01:25:38.543Z,988.51
2017-01-24T01:26:47.240Z,988.44
2017-01-24T01:27:55.924Z,988.47
2017-01-24T01:29:04.612Z,988.46
2017-01-24T01:30:13.700Z,988.51
2017-01-24T01:31:22.384Z,988.57
2017-01-24T01:32:31.072Z,988.54
2017-01-24T01:33:39.761Z,988.53
2017-01-24T01:34:48.449Z,988.57
2017-01-24T01:35:57.135Z,988.55
2017-01-24T01:37:05.823Z,988.57
2017-01-24T01:38:14.513Z,988.6
2017-01-24T01:39:23.200Z,988.61
2017-01-24T01:40:31.884Z,988.55
2017-01-24T01:41:40.569Z,988.54
2017-01-24T01:42:49.260Z,988.56
2017-01-24T01:43:57.968Z,988.54
2017-01-24T01:45:06.659Z,988.58
2017-01-24T01:46:15.345Z,988.69
2017-01-24T01:47:24.035Z,988.67
2017-01-24T01:48:32.723Z,988.6
2017-01-24T01:49:41.408Z,988.62
2017-01-24T01:50:50.100Z,988.63
2017-01-24T01:51:58.791Z,988.63
2017-01-24T01:53:07.909Z,988.65
2017-01-24T01:54:16.617Z,988.67
2017-01-24T01:55:25.304Z,988.64
2017-01-24T01:56:33.992Z,988.63
2017-01-24T01:57:42.683Z,988.65
2017-01-24T01:58:51.372Z,988.63
2017-01-24T02:00:00.086Z,988.64
2017-01-24T02:01:08.777Z,988.63
2017-01-24T02:02:17.468Z,988.61
2017-01-24T02:03:26.161Z,988.61
2017-01-24T02:04:34.849Z,988.57
2017-01-24T02:05:43.541Z,988.56
2017-01-24T02:06:52.625Z,988.52
2017-01-24T02:08:01.317Z,988.52
2017-01-24T02:09:10.013Z,988.51
2017-01-24T02:10:19.119Z,988.55
2017-01-24T02:11:27.806Z,988.55
2017-01-24T02:12:36.490Z,988.57
2017-01-24T02:13:45.181Z,988.57
2017-01-24T02:14:53.876Z,988.61
2017-01-24T02:16:02.564Z,988.61
2017-01-24T02:17:11.251Z,988.61
2017-01-24T02:18:19.939Z,988.59
2017-01-24T02:19:28.624Z,988.6
2017-01-24T02:20:37.308Z,988.61
2017-01-24T02:21:45.998Z,988.65
2017-01-24T02:22:54.689Z,988.67
2017-01-24T02:24:03.377Z,988.69
2017-01-24T02:25:12.063Z,988.67
2017-01-24T02:26:20.749Z,988.69
2017-01-24T02:27:29.438Z,988.67
2017-01-24T02:28:38.124Z,988.65
2017-01-24T02:29:46.810Z,988.64
2017-01-24T02:30:55.498Z,988.67
2017-01-24T02:32:04.216Z,988.61
2017-01-24T02:33:12.911Z,988.62
2017-01-24T02:34:21.598Z,988.63
2017-01-24T02:35:30.689Z,988.61
2017-01-24T02:36:39.380Z,988.63
2017-01-24T02:37:48.069Z,988.68
2017-01-24T02:38:56.758Z,988.71
2017-01-24T02:40:05.445Z,988.7
2017-01-24T02:41:14.143Z,988.72
2017-01-24T02:42:22.837Z,988.71
2017-01-24T02:43:31.527Z,988.73
2017-01-24T02:44:40.214Z,988.75
2017-01-24T02:45:48.909Z,988.74
2017-01-24T02:46:57.593Z,988.76
2017-01-24T02:48:06.283Z,988.74
2017-01-24T02:49:14.974Z,988.69
2017-01-24T02:50:23.662Z,988.74
2017-01-24T02:51:32.351Z,988.72
2017-01-24T02:52:41.038Z,988.76
2017-01-24T02:53:49.727Z,988.76
2017-01-24T02:54:58.415Z,988.73
2017-01-24T02:56:07.107Z,988.73
2017-01-24T02:57:15.794Z,988.67
2017-01-24T02:58:24.491Z,988.68
2017-01-24T02:59:33.179Z,988.7
2017-01-24T03:00:41.876Z,988.66
2017-01-24T03:01:50.565Z,988.6
2017-01-24T03:02:59.253Z,988.62
2017-01-24T03:04:07.943Z,988.59
2017-01-24T03:05:16.631Z,988.58
2017-01-24T03:06:25.319Z,988.52
2017-01-24T03:07:34.014Z,988.51
2017-01-24T03:08:42.701Z,988.51
2017-01-24T03:09:51.393Z,988.53
2017-01-24T03:11:00.083Z,988.55
2017-01-24T03:12:08.772Z,988.47
2017-01-24T03:13:17.456Z,988.5
2017-01-24T03:14:26.142Z,988.52
2017-01-24T03:15:34.825Z,988.52
2017-01-24T03:16:43.531Z,988.54
2017-01-24T03:17:52.614Z,988.48
2017-01-24T03:19:01.301Z,988.47
2017-01-24T03:20:09.983Z,988.46
2017-01-24T03:21:18.662Z,988.44
2017-01-24T03:22:27.349Z,988.47
2017-01-24T03:23:36.030Z,988.45
2017-01-24T03:24:44.712Z,988.46
2017-01-24T03:25:53.394Z,988.5
2017-01-24T03:27:02.074Z,988.54
2017-01-24T03:28:10.772Z,988.49
2017-01-24T03:29:19.456Z,988.49
2017-01-24T03:30:28.133Z,988.45
2017-01-24T03:31:36.813Z,988.48
2017-01-24T03:32:45.502Z,988.49
2017-01-24T03:33:54.183Z,988.46
2017-01-24T03:35:02.870Z,988.51
2017-01-24T03:36:11.551Z,988.54
2017-01-24T03:37:20.235Z,988.52
2017-01-24T03:38:28.913Z,988.54
2017-01-24T03:39:37.603Z,988.52
2017-01-24T03:40:46.312Z,988.54
2017-01-24T03:41:54.992Z,988.55
2017-01-24T03:43:03.680Z,988.54
2017-01-24T03:44:12.360Z,988.55
2017-01-24T03:45:21.039Z,988.56
2017-01-24T03:46:29.718Z,988.57
2017-01-24T03:47:38.797Z,988.58
2017-01-24T03:48:47.480Z,988.61
2017-01-24T03:49:56.167Z,988.61
2017-01-24T03:51:04.859Z,988.63
2017-01-24T03:52:13.537Z,988.61
2017-01-24T03:53:22.219Z,988.63
2017-01-24T03:54:30.899Z,988.61
2017-01-24T03:55:39.581Z,988.62
2017-01-24T03:56:48.263Z,988.67
2017-01-24T03:57:56.963Z,988.66
2017-01-24T03:59:05.647Z,988.67
2017-01-24T04:00:14.334Z,988.68
2017-01-24T04:01:23.016Z,988.68
2017-01-24T04:02:31.697Z,988.68
2017-01-24T04:03:40.377Z,988.71
2017-01-24T04:04:49.060Z,988.71
2017-01-24T04:05:57.743Z,988.75
2017-01-24T04:07:06.426Z,988.75
2017-01-24T04:08:15.112Z,988.73
2017-01-24T04:09:23.789Z,988.8
2017-01-24T04:10:32.473Z,988.81
2017-01-24T04:11:41.156Z,988.83
2017-01-24T04:12:49.841Z,988.79
2017-01-24T04:13:58.522Z,988.78
2017-01-24T04:15:07.608Z,988.82
2017-01-24T04:16:16.292Z,988.8
2017-01-24T04:17:24.981Z,988.76
2017-01-24T04:18:33.671Z,988.79
2017-01-24T04:19:42.353Z,988.8
2017-01-24T04:20:51.065Z,988.77
2017-01-24T04:22:00.148Z,988.79
2017-01-24T04:23:08.829Z,988.79
2017-01-24T04:24:17.509Z,988.83
2017-01-24T04:25:26.238Z,988.81
2017-01-24T04:26:34.919Z,988.78
2017-01-24T04:27:43.599Z,988.8
2017-01-24T04:28:52.280Z,988.81
2017-01-24T04:30:00.961Z,988.82
2017-01-24T04:31:09.655Z,988.83
2017-01-24T04:32:18.338Z,988.82
2017-01-24T04:33:27.019Z,988.85
2017-01-24T04:34:35.708Z,988.83
2017-01-24T04:35:44.389Z,988.85
2017-01-24T04:36:53.072Z,988.87
2017-01-24T04:38:01.752Z,988.89
2017-01-24T04:39:10.440Z,988.91
2017-01-24T04:40:19.123Z,988.93
2017-01-24T04:41:27.804Z,988.98
2017-01-24T04:42:36.494Z,988.93
2017-01-24T04:43:45.178Z,988.94
2017-01-24T04:44:53.857Z,988.91
2017-01-24T04:46:02.545Z,988.94
2017-01-24T04:47:11.230Z,988.95
2017-01-24T04:48:19.915Z,988.91
2017-01-24T04:49:28.601Z,988.92
2017-01-24T04:50:37.282Z,988.94
2017-01-24T04:51:45.976Z,989.02
2017-01-24T04:52:54.658Z,988.97
2017-01-24T04:54:03.362Z,989.05
2017-01-24T04:55:12.060Z,989.05
2017-01-24T04:56:20.743Z,989.1
2017-01-24T04:57:29.427Z,989.09
2017-01-24T04:58:38.109Z,989.09
2017-01-24T04:59:46.792Z,989.07
2017-01-24T05:00:55.473Z,989.07
2017-01-24T05:02:04.159Z,989.09
2017-01-24T05:03:12.861Z,989.09
2017-01-24T05:04:21.546Z,989.06
2017-01-24T05:05:30.234Z,989.08
2017-01-24T05:06:38.914Z,989.07
2017-01-24T05:07:47.601Z,989.02
2017-01-24T05:08:56.286Z,989.04
2017-01-24T05:10:04.974Z,989.04
2017-01-24T05:11:13.655Z,989.02
2017-01-24T05:12:22.336Z,988.97
2017-01-24T05:13:31.012Z,989.05
2017-01-24T05:14:39.718Z,989.01
2017-01-24T05:15:48.406Z,989.02
2017-01-24T05:16:57.088Z,989.02
2017-01-24T05:18:05.772Z,989.02
2017-01-24T05:19:14.452Z,988.97
2017-01-24T05:20:23.136Z,988.99
2017-01-24T05:21:31.816Z,988.96
2017-01-24T05:22:40.849Z,988.97
2017-01-24T05:23:49.529Z,989
2017-01-24T05:24:58.205Z,989.01
2017-01-24T05:26:07.288Z,989.01
2017-01-24T05:27:15.972Z,989.01
2017-01-24T05:28:24.651Z,989.07
2017-01-24T05:29:33.329Z,989.13
2017-01-24T05:30:42.011Z,989.12
2017-01-24T05:31:50.696Z,989.16
2017-01-24T05:32:59.403Z,989.11
2017-01-24T05:34:08.088Z,989.07
2017-01-24T05:35:16.764Z,989.08
2017-01-24T05:36:25.444Z,989.12
2017-01-24T05:37:34.122Z,989.11
2017-01-24T05:38:42.828Z,989.14
2017-01-24T05:39:51.507Z,989.11
2017-01-24T05:41:00.187Z,989.14
2017-01-24T05:42:08.869Z,989.06
2017-01-24T05:43:17.549Z,989.02
2017-01-24T05:44:26.228Z,989.02
2017-01-24T05:45:34.911Z,988.98
2017-01-24T05:46:43.593Z,988.98
2017-01-24T05:47:52.275Z,988.97
2017-01-24T05:49:01.355Z,989.01
2017-01-24T05:50:10.036Z,988.99
2017-01-24T05:51:18.762Z,989.03
2017-01-24T05:52:27.442Z,989.02
2017-01-24T05:53:36.127Z,989.03
2017-01-24T05:54:44.804Z,988.99
2017-01-24T05:55:53.491Z,989.04
2017-01-24T05:57:02.171Z,989.03
2017-01-24T05:58:10.856Z,989.04
2017-01-24T05:59:19.539Z,989.03
2017-01-24T06:00:28.216Z,989.02
2017-01-24T06:01:36.939Z,989.06
2017-01-24T06:02:45.621Z,989.08
2017-01-24T06:03:54.301Z,989.09
2017-01-24T06:05:02.998Z,989.14
2017-01-24T06:06:11.683Z,989.17
2017-01-24T06:07:20.362Z,989.18
2017-01-24T06:08:29.044Z,989.2
2017-01-24T06:09:37.721Z,989.21
2017-01-24T06:10:46.409Z,989.18
2017-01-24T06:11:55.091Z,989.18
2017-01-24T06:13:03.773Z,989.21
2017-01-24T06:14:12.453Z,989.23
2017-01-24T06:15:21.150Z,989.21
2017-01-24T06:16:29.827Z,989.23
2017-01-24T06:17:38.515Z,989.17
2017-01-24T06:18:47.213Z,989.18
2017-01-24T06:19:55.992Z,989.2
2017-01-24T06:21:04.675Z,989.2
2017-01-24T06:22:13.354Z,989.21
2017-01-24T06:23:22.039Z,989.21
2017-01-24T06:24:30.722Z,989.21
2017-01-24T06:25:39.414Z,989.25
2017-01-24T06:26:48.090Z,989.28
2017-01-24T06:27:56.771Z,989.29
2017-01-24T06:29:05.459Z,989.26
2017-01-24T06:30:14.144Z,989.26
2017-01-24T06:31:22.822Z,989.27
2017-01-24T06:32:31.503Z,989.35
2017-01-24T06:33:40.187Z,989.38
2017-01-24T06:34:48.873Z,989.4
2017-01-24T06:35:57.557Z,989.39
2017-01-24T06:37:06.240Z,989.41
2017-01-24T06:38:14.949Z,989.46
2017-01-24T06:39:23.626Z,989.44
2017-01-24T06:40:32.340Z,989.5
2017-01-24T06:41:41.020Z,989.52
2017-01-24T06:42:49.702Z,989.5
2017-01-24T06:43:58.383Z,989.53
2017-01-24T06:45:07.062Z,989.54
2017-01-24T06:46:15.742Z,989.56
2017-01-24T06:47:24.434Z,989.64
2017-01-24T06:48:33.115Z,989.6
2017-01-24T06:49:41.792Z,989.61
2017-01-24T06:50:50.871Z,989.57
2017-01-24T06:51:59.553Z,989.56
2017-01-24T06:53:08.259Z,989.58
2017-01-24T06:54:16.941Z,989.58
2017-01-24T06:55:25.621Z,989.62
2017-01-24T06:56:34.298Z,989.59
2017-01-24T06:57:42.986Z,989.64
2017-01-24T06:58:51.668Z,989.63
2017-01-24T07:00:00.355Z,989.63
2017-01-24T07:01:09.063Z,989.65
2017-01-24T07:02:17.749Z,989.65
2017-01-24T07:03:26.429Z,989.67
2017-01-24T07:04:35.105Z,989.73
2017-01-24T07:05:43.784Z,989.74
2017-01-24T07:06:52.465Z,989.73
2017-01-24T07:08:01.150Z,989.72
2017-01-24T07:09:09.842Z,989.73
2017-01-24T07:10:18.522Z,989.76
2017-01-24T07:11:27.201Z,989.76
2017-01-24T07:12:35.883Z,989.76
2017-01-24T07:13:44.569Z,989.71
2017-01-24T07:14:53.247Z,989.75
2017-01-24T07:16:01.931Z,989.75
2017-01-24T07:17:10.763Z,989.77
2017-01-24T07:18:19.444Z,989.85
2017-01-24T07:19:28.119Z,989.79
2017-01-24T07:20:36.799Z,989.88
2017-01-24T07:21:45.479Z,989.89
2017-01-24T07:22:54.157Z,989.9
2017-01-24T07:24:02.837Z,989.84
2017-01-24T07:25:11.519Z,989.85
2017-01-24T07:26:20.209Z,989.81
2017-01-24T07:27:28.895Z,989.8
2017-01-24T07:28:37.580Z,989.83
2017-01-24T07:29:46.260Z,989.87
2017-01-24T07:30:54.943Z,989.85
2017-01-24T07:32:03.639Z,989.86
2017-01-24T07:33:12.330Z,989.86
2017-01-24T07:34:21.007Z,989.91
2017-01-24T07:35:29.684Z,989.88
2017-01-24T07:36:38.368Z,989.9
2017-01-24T07:37:47.059Z,989.91
2017-01-24T07:38:55.739Z,989.9
2017-01-24T07:40:04.423Z,989.92
2017-01-24T07:41:13.113Z,989.88
2017-01-24T07:42:21.796Z,989.89
2017-01-24T07:43:30.484Z,989.86
2017-01-24T07:44:39.164Z,989.93
2017-01-24T07:45:47.843Z,989.91
2017-01-24T07:46:56.526Z,989.91
2017-01-24T07:48:05.212Z,989.94
2017-01-24T07:49:13.899Z,989.93
2017-01-24T07:50:22.589Z,989.96
2017-01-24T07:51:31.274Z,989.96
2017-01-24T07:52:39.971Z,989.92
2017-01-24T07:53:48.674Z,989.95
2017-01-24T07:54:57.355Z,989.99
2017-01-24T07:56:06.039Z,990.01
2017-01-24T07:57:14.728Z,990.06
2017-01-24T07:58:23.410Z,990.09
2017-01-24T07:59:32.093Z,990.13
2017-01-24T08:00:40.791Z,990.09
2017-01-24T08:01:49.479Z,990.09
2017-01-24T08:02:58.194Z,990.1
2017-01-24T08:04:06.877Z,990.12
2017-01-24T08:05:15.955Z,990.12
2017-01-24T08:06:24.636Z,990.12
2017-01-24T08:07:33.319Z,990.09
2017-01-24T08:08:42.012Z,990.15
2017-01-24T08:09:50.697Z,990.14
2017-01-24T08:10:59.376Z,990.2
2017-01-24T08:12:08.064Z,990.18
2017-01-24T08:13:17.140Z,990.19
2017-01-24T08:14:25.822Z,990.19
2017-01-24T08:15:34.508Z,990.18
2017-01-24T08:16:43.192Z,990.17
2017-01-24T08:17:51.877Z,990.17
2017-01-24T08:19:00.564Z,990.19
2017-01-24T08:20:09.250Z,990.19
2017-01-24T08:21:17.936Z,990.23
2017-01-24T08:22:26.622Z,990.27
2017-01-24T08:23:35.300Z,990.26
2017-01-24T08:24:43.986Z,990.19
2017-01-24T08:25:52.661Z,990.2
2017-01-24T08:27:01.342Z,990.17
2017-01-24T08:28:10.019Z,990.14
2017-01-24T08:29:19.094Z,990.14
2017-01-24T08:30:27.774Z,990.13
2017-01-24T08:31:36.461Z,990.14
2017-01-24T08:32:45.145Z,990.1
2017-01-24T08:33:53.827Z,990.1
2017-01-24T08:35:02.508Z,990.14
2017-01-24T08:36:11.194Z,990.15
2017-01-24T08:37:19.879Z,990.09
2017-01-24T08:38:28.569Z,990.1
2017-01-24T08:39:37.249Z,990.11
2017-01-24T08:40:45.936Z,990.17
2017-01-24T08:41:54.617Z,990.2
2017-01-24T08:43:03.301Z,990.17
2017-01-24T08:44:11.983Z,990.19
2017-01-24T08:45:20.662Z,990.19
2017-01-24T08:46:29.340Z,990.21
2017-01-24T08:47:38.025Z,990.17
2017-01-24T08:48:46.711Z,990.25
2017-01-24T08:49:55.393Z,990.19
2017-01-24T08:51:04.076Z,990.18
2017-01-24T08:52:12.766Z,990.15
2017-01-24T08:53:21.451Z,990.16
2017-01-24T08:54:30.532Z,990.18
2017-01-24T08:55:39.219Z,990.28
2017-01-24T08:56:47.895Z,990.23
2017-01-24T08:57:56.586Z,990.22
2017-01-24T08:59:05.274Z,990.21
2017-01-24T09:00:13.962Z,990.21
2017-01-24T09:01:22.647Z,990.19
2017-01-24T09:02:31.328Z,990.17
2017-01-24T09:03:40.015Z,990.2
2017-01-24T09:04:48.698Z,990.08
2017-01-24T09:05:57.388Z,990.15
2017-01-24T09:07:06.477Z,990.14
2017-01-24T09:08:15.164Z,990.17
2017-01-24T09:09:23.850Z,990.24
2017-01-24T09:10:32.533Z,990.22
2017-01-24T09:11:41.214Z,990.3
2017-01-24T09:12:49.910Z,990.3
2017-01-24T09:13:58.595Z,990.29
2017-01-24T09:15:07.284Z,990.24
2017-01-24T09:16:15.968Z,990.28
2017-01-24T09:17:24.655Z,990.27
2017-01-24T09:18:33.742Z,990.32
2017-01-24T09:19:42.436Z,990.32
2017-01-24T09:20:51.120Z,990.33
2017-01-24T09:21:59.803Z,990.33
2017-01-24T09:23:08.482Z,990.29
2017-01-24T09:24:17.570Z,990.32
2017-01-24T09:25:26.260Z,990.27
2017-01-24T09:26:34.940Z,990.31
2017-01-24T09:27:43.629Z,990.3
2017-01-24T09:28:52.314Z,990.29
2017-01-24T09:30:00.994Z,990.35
2017-01-24T09:31:09.688Z,990.39
2017-01-24T09:32:18.367Z,990.37
2017-01-24T09:33:27.046Z,990.42
2017-01-24T09:34:36.148Z,990.4
2017-01-24T09:35:44.833Z,990.43
2017-01-24T09:36:53.523Z,990.41
2017-01-24T09:38:02.205Z,990.48
2017-01-24T09:39:10.906Z,990.38
2017-01-24T09:40:19.989Z,990.42
2017-01-24T09:41:28.667Z,990.44
2017-01-24T09:42:37.348Z,990.45
2017-01-24T09:43:46.052Z,990.43
2017-01-24T09:44:54.737Z,990.38
2017-01-24T09:46:03.417Z,990.44
2017-01-24T09:47:12.103Z,990.42
2017-01-24T09:48:20.793Z,990.38
2017-01-24T09:49:29.475Z,990.31
2017-01-24T09:50:38.167Z,990.32
2017-01-24T09:51:46.847Z,990.33
2017-01-24T09:52:55.533Z,990.33
2017-01-24T09:54:04.217Z,990.35
2017-01-24T09:55:12.899Z,990.36
2017-01-24T09:56:21.588Z,990.39
2017-01-24T09:57:30.270Z,990.37
2017-01-24T09:58:38.950Z,990.4
2017-01-24T09:59:48.027Z,990.38
2017-01-24T10:00:56.709Z,990.36
2017-01-24T10:02:05.393Z,990.38
2017-01-24T10:03:14.088Z,990.39
2017-01-24T10:04:22.769Z,990.42
2017-01-24T10:05:31.447Z,990.42
2017-01-24T10:06:40.135Z,990.4
2017-01-24T10:07:48.815Z,990.42
2017-01-24T10:08:57.549Z,990.45
2017-01-24T10:10:06.233Z,990.42
2017-01-24T10:11:14.911Z,990.45
2017-01-24T10:12:23.597Z,990.41
2017-01-24T10:13:32.279Z,990.45
2017-01-24T10:14:40.965Z,990.47
2017-01-24T10:15:49.649Z,990.51
2017-01-24T10:16:58.331Z,990.54
2017-01-24T10:18:07.012Z,990.51
2017-01-24T10:19:15.697Z,990.47
2017-01-24T10:20:24.380Z,990.52
2017-01-24T10:21:33.073Z,990.53
2017-01-24T10:22:41.774Z,990.44
2017-01-24T10:23:50.457Z,990.49
2017-01-24T10:24:59.141Z,990.42
2017-01-24T10:26:07.854Z,990.39
2017-01-24T10:27:16.539Z,990.37
2017-01-24T10:28:25.223Z,990.4
2017-01-24T10:29:33.941Z,990.42
2017-01-24T10:30:42.626Z,990.45
2017-01-24T10:31:51.378Z,990.45
2017-01-24T10:33:00.059Z,990.48
2017-01-24T10:34:08.742Z,990.45
2017-01-24T10:35:17.426Z,990.42
2017-01-24T10:36:26.111Z,990.39
2017-01-24T10:37:34.802Z,990.43
2017-01-24T10:38:43.483Z,990.39
2017-01-24T10:39:52.558Z,990.43
2017-01-24T10:41:01.239Z,990.4
2017-01-24T10:42:09.919Z,990.41
2017-01-24T10:43:18.599Z,990.44
2017-01-24T10:44:27.282Z,990.45
2017-01-24T10:45:35.967Z,990.44
2017-01-24T10:46:44.648Z,990.41
2017-01-24T10:47:53.347Z,990.37
2017-01-24T10:49:02.030Z,990.35
2017-01-24T10:50:10.718Z,990.36
2017-01-24T10:51:19.401Z,990.3
2017-01-24T10:52:28.124Z,990.3
2017-01-24T10:53:36.806Z,990.28
2017-01-24T10:54:45.502Z,990.31
2017-01-24T10:55:54.187Z,990.32
2017-01-24T10:57:02.868Z,990.37
2017-01-24T10:58:11.550Z,990.42
2017-01-24T10:59:20.245Z,990.4
2017-01-24T11:00:28.927Z,990.39
2017-01-24T11:01:37.613Z,990.41
2017-01-24T11:02:46.301Z,990.41
2017-01-24T11:03:54.985Z,990.4
2017-01-24T11:05:04.064Z,990.36
2017-01-24T11:06:12.749Z,990.36
2017-01-24T11:07:21.430Z,990.35
2017-01-24T11:08:30.109Z,990.36
2017-01-24T11:09:38.792Z,990.33
2017-01-24T11:10:47.473Z,990.29
2017-01-24T11:11:56.153Z,990.33
2017-01-24T11:13:04.841Z,990.27
2017-01-24T11:14:13.524Z,990.29
2017-01-24T11:15:22.205Z,990.31
2017-01-24T11:16:30.887Z,990.34
2017-01-24T11:17:39.572Z,990.37
2017-01-24T11:18:48.261Z,990.34
2017-01-24T11:19:56.947Z,990.39
2017-01-24T11:21:05.634Z,990.36
2017-01-24T11:22:14.320Z,990.34
2017-01-24T11:23:23.005Z,990.36
2017-01-24T11:24:31.688Z,990.35
2017-01-24T11:25:40.369Z,990.34
2017-01-24T11:26:49.053Z,990.33
2017-01-24T11:27:57.735Z,990.33
2017-01-24T11:29:06.423Z,990.27
2017-01-24T11:30:15.108Z,990.27
2017-01-24T11:31:23.788Z,990.26
2017-01-24T11:32:32.469Z,990.2
2017-01-24T11:33:41.180Z,990.2
2017-01-24T11:34:49.872Z,990.19
2017-01-24T11:35:58.554Z,990.17
2017-01-24T11:37:07.239Z,990.11
2017-01-24T11:38:15.923Z,990.13
2017-01-24T11:39:24.609Z,990.15
2017-01-24T11:40:33.293Z,990.16
2017-01-24T11:41:41.975Z,990.14
2017-01-24T11:42:50.659Z,990.1
2017-01-24T11:43:59.342Z,990.07
2017-01-24T11:45:08.031Z,990.03
2017-01-24T11:46:16.714Z,990
2017-01-24T11:47:25.814Z,990.02
2017-01-24T11:48:34.498Z,990.01
2017-01-24T11:49:43.186Z,990.02
2017-01-24T11:50:51.870Z,989.99
2017-01-24T11:52:00.556Z,990.03
2017-01-24T11:53:10.041Z,990.03
2017-01-24T11:54:18.757Z,990.07
2017-01-24T11:55:27.445Z,990.01
2017-01-24T11:56:36.129Z,990.04
2017-01-24T11:57:44.840Z,990.03
2017-01-24T11:58:53.561Z,990.06
2017-01-24T12:00:02.243Z,990
2017-01-24T12:01:10.931Z,990
2017-01-24T12:02:19.617Z,990.03
2017-01-24T12:03:28.298Z,990.03
2017-01-24T12:04:36.981Z,989.98
2017-01-24T12:05:45.663Z,990
2017-01-24T12:06:54.344Z,989.98
2017-01-24T12:08:03.030Z,989.96
2017-01-24T12:09:11.725Z,989.92
2017-01-24T12:10:20.413Z,989.85
2017-01-24T12:11:29.103Z,989.79
2017-01-24T12:12:37.788Z,989.74
2017-01-24T12:13:46.497Z,989.74
2017-01-24T12:14:55.183Z,989.69
2017-01-24T12:16:04.285Z,989.6
2017-01-24T12:17:12.972Z,989.62
2017-01-24T12:18:21.657Z,989.64
2017-01-24T12:19:30.345Z,989.68
2017-01-24T12:20:39.032Z,989.64
2017-01-24T12:21:47.721Z,989.58
2017-01-24T12:22:56.401Z,989.53
2017-01-24T12:24:05.090Z,989.48
2017-01-24T12:25:13.772Z,989.56
2017-01-24T12:26:22.857Z,989.5
2017-01-24T12:27:31.546Z,989.51
2017-01-24T12:28:40.230Z,989.46
2017-01-24T12:29:48.943Z,989.45
2017-01-24T12:30:57.625Z,989.48
2017-01-24T12:32:06.311Z,989.46
2017-01-24T12:33:15.023Z,989.47
2017-01-24T12:34:23.703Z,989.41
2017-01-24T12:35:32.391Z,989.45
2017-01-24T12:36:41.072Z,989.42
2017-01-24T12:37:49.759Z,989.45
2017-01-24T12:38:58.448Z,989.37
2017-01-24T12:40:07.134Z,989.34
2017-01-24T12:41:15.823Z,989.39
2017-01-24T12:42:24.512Z,989.35
2017-01-24T12:43:33.198Z,989.37
2017-01-24T12:44:41.882Z,989.43
2017-01-24T12:45:50.564Z,989.42
2017-01-24T12:46:59.248Z,989.44
2017-01-24T12:48:07.959Z,989.41
2017-01-24T12:49:16.647Z,989.4
2017-01-24T12:50:25.338Z,989.39
2017-01-24T12:51:34.024Z,989.41
2017-01-24T12:52:42.722Z,989.46
2017-01-24T12:53:51.406Z,989.43
2017-01-24T12:55:00.091Z,989.42
2017-01-24T12:56:08.785Z,989.39
2017-01-24T12:57:17.467Z,989.43
2017-01-24T12:58:26.152Z,989.4
2017-01-24T12:59:34.851Z,989.44
2017-01-24T13:00:43.536Z,989.42
2017-01-24T13:01:52.229Z,989.42
2017-01-24T13:03:00.915Z,989.46
2017-01-24T13:04:09.599Z,989.45
2017-01-24T13:05:18.287Z,989.43
2017-01-24T13:06:26.974Z,989.42
2017-01-24T13:07:35.675Z,989.44
2017-01-24T13:08:44.361Z,989.48
2017-01-24T13:09:53.068Z,989.5
2017-01-24T13:11:01.762Z,989.56
2017-01-24T13:12:10.447Z,989.63
2017-01-24T13:13:19.130Z,989.74
2017-01-24T13:14:27.814Z,989.76
2017-01-24T13:15:36.502Z,989.78
2017-01-24T13:16:45.184Z,989.78
2017-01-24T13:17:53.885Z,989.73
2017-01-24T13:19:02.575Z,989.75
2017-01-24T13:20:11.259Z,989.75
2017-01-24T13:21:19.937Z,989.8
2017-01-24T13:22:28.620Z,989.85
2017-01-24T13:23:37.348Z,989.85
2017-01-24T13:24:46.030Z,989.91
2017-01-24T13:25:54.715Z,989.94
2017-01-24T13:27:03.452Z,989.96
2017-01-24T13:28:12.138Z,990.03
2017-01-24T13:29:20.825Z,989.99
2017-01-24T13:30:29.509Z,990
2017-01-24T13:31:38.193Z,990.05
2017-01-24T13:32:46.876Z,990.03
2017-01-24T13:33:55.562Z,990.09
2017-01-24T13:35:04.277Z,990.08
2017-01-24T13:36:12.963Z,990.15
2017-01-24T13:37:21.672Z,990.07
2017-01-24T13:38:30.357Z,990.05
2017-01-24T13:39:39.437Z,990.04
2017-01-24T13:40:48.130Z,990.02
2017-01-24T13:41:56.821Z,990.06
2017-01-24T13:43:05.507Z,990.02
2017-01-24T13:44:14.197Z,990.01
2017-01-24T13:45:22.875Z,990.02
2017-01-24T13:46:31.559Z,989.98
2017-01-24T13:47:40.241Z,990.08
2017-01-24T13:48:48.922Z,990.05
2017-01-24T13:49:57.608Z,990.13
2017-01-24T13:51:06.297Z,990.13
2017-01-24T13:52:14.976Z,990.15
2017-01-24T13:53:23.687Z,990.13
2017-01-24T13:54:32.371Z,990.15
2017-01-24T13:55:41.059Z,990.12
2017-01-24T13:56:49.751Z,990.07
2017-01-24T13:57:58.430Z,990.07
2017-01-24T13:59:07.115Z,990.1
2017-01-24T14:00:15.827Z,990.07
2017-01-24T14:01:24.512Z,990.1
2017-01-24T14:02:33.196Z,990.09
2017-01-24T14:03:41.878Z,990.09
2017-01-24T14:04:50.562Z,989.97
2017-01-24T14:05:59.280Z,989.88
2017-01-24T14:07:08.053Z,989.82
2017-01-24T14:08:16.738Z,989.77
2017-01-24T14:09:25.477Z,989.72
2017-01-24T14:10:34.170Z,989.63
2017-01-24T14:11:42.858Z,989.54
2017-01-24T14:12:51.541Z,989.48
2017-01-24T14:14:00.224Z,989.51
2017-01-24T14:15:09.012Z,989.47
2017-01-24T14:16:17.693Z,989.45
2017-01-24T14:17:26.375Z,989.55
2017-01-24T14:18:35.068Z,989.61
2017-01-24T14:19:43.754Z,989.57